createdAt,value
2023-04-27T00:01:38.377Z,100.00
2023-04-27T00:04:47.298Z,100.00
2023-04-27T00:07:55.187Z,100.00
2023-04-27T00:11:09.872Z,100.00
2023-04-27T00:14:26.134Z,100.00
2023-04-27T00:17:29.228Z,100.00
2023-04-27T00:20:35.685Z,100.00
2023-04-27T00:23:57.273Z,100.00
2023-04-27T00:27:12.839Z,100.00
2023-04-27T00:30:16.382Z,100.00
2023-04-27T00:33:19.743Z,100.00
2023-04-27T00:37:20.583Z,100.00
2023-04-27T00:40:29.024Z,100.00
2023-04-27T00:43:35.265Z,100.00
2023-04-27T00:46:52.071Z,100.00
2023-04-27T00:49:57.748Z,100.00
2023-04-27T00:53:04.540Z,100.00
2023-04-27T00:56:13.501Z,100.00
2023-04-27T00:59:19.423Z,100.00
2023-04-27T01:02:25.617Z,100.00
2023-04-27T01:05:32.009Z,100.00
2023-04-27T01:08:36.067Z,100.00
2023-04-27T01:11:45.888Z,100.00
2023-04-27T01:14:51.651Z,100.00
2023-04-27T01:17:59.598Z,100.00
2023-04-27T01:21:05.127Z,100.00
2023-04-27T01:24:18.748Z,100.00
2023-04-27T01:27:24.421Z,100.00
2023-04-27T01:30:31.327Z,100.00
2023-04-27T01:33:37.690Z,100.00
2023-04-27T01:36:42.001Z,100.00
2023-04-27T01:39:52.002Z,100.00
2023-04-27T01:42:55.075Z,100.00
2023-04-27T01:45:58.278Z,100.00
2023-04-27T01:49:01.471Z,100.00
2023-04-27T01:52:04.953Z,100.00
2023-04-27T01:55:11.523Z,100.00
2023-04-27T01:58:14.904Z,100.00
2023-04-27T02:01:18.099Z,100.00
2023-04-27T02:04:22.061Z,100.00
2023-04-27T02:07:25.391Z,100.00
2023-04-27T02:10:29.877Z,100.00
2023-04-27T02:13:34.120Z,100.00
2023-04-27T02:16:38.265Z,100.00
2023-04-27T02:19:41.366Z,100.00
2023-04-27T02:22:44.625Z,100.00
2023-04-27T02:25:49.497Z,100.00
2023-04-27T02:28:53.174Z,100.00
2023-04-27T02:31:57.511Z,100.00
2023-04-27T02:35:00.746Z,100.00
2023-04-27T02:38:04.996Z,100.00
2023-04-27T02:41:09.273Z,100.00
2023-04-27T02:44:12.508Z,100.00
2023-04-27T02:47:15.594Z,100.00
2023-04-27T02:50:19.075Z,100.00
2023-04-27T02:53:22.208Z,100.00
2023-04-27T02:56:26.591Z,100.00
2023-04-27T02:59:29.653Z,100.00
2023-04-27T03:02:33.191Z,100.00
2023-04-27T03:05:37.252Z,100.00
2023-04-27T03:08:40.720Z,100.00
2023-04-27T03:11:47.753Z,100.00
2023-04-27T03:14:53.544Z,100.00
2023-04-27T03:17:56.878Z,100.00
2023-04-27T03:21:08.841Z,100.00
2023-04-27T03:24:12.297Z,100.00
2023-04-27T03:27:17.269Z,100.00
2023-04-27T03:30:21.061Z,100.00
2023-04-27T03:33:27.287Z,100.00
2023-04-27T03:36:32.109Z,100.00
2023-04-27T03:39:35.440Z,100.00
2023-04-27T03:42:40.496Z,100.00
2023-04-27T03:45:47.040Z,100.00
2023-04-27T03:48:50.086Z,100.00
2023-04-27T03:51:53.962Z,100.00
2023-04-27T03:54:57.109Z,100.00
2023-04-27T03:58:02.013Z,100.00
2023-04-27T04:01:06.386Z,100.00
2023-04-27T04:04:09.889Z,100.00
2023-04-27T04:07:13.077Z,100.00
2023-04-27T04:10:16.428Z,100.00
2023-04-27T04:13:21.914Z,100.00
2023-04-27T04:16:25.632Z,100.00
2023-04-27T04:19:29.507Z,100.00
2023-04-27T04:22:33.713Z,100.00
2023-04-27T04:25:37.220Z,100.00
2023-04-27T04:28:42.052Z,100.00
2023-04-27T04:31:46.762Z,100.00
2023-04-27T04:34:51.712Z,100.00
2023-04-27T04:37:56.743Z,100.00
2023-04-27T04:40:59.829Z,100.00
2023-04-27T04:44:07.702Z,100.00
2023-04-27T04:47:10.963Z,100.00
2023-04-27T04:50:15.906Z,100.00
2023-04-27T04:53:19.584Z,100.00
2023-04-27T04:56:26.529Z,100.00
2023-04-27T04:59:41.393Z,100.00
2023-04-27T05:02:48.921Z,100.00
2023-04-27T05:05:54.646Z,100.00
2023-04-27T05:08:58.201Z,100.00
2023-04-27T05:12:02.720Z,100.00
2023-04-27T05:15:08.662Z,100.00
2023-04-27T05:18:24.184Z,100.00
2023-04-27T05:21:27.284Z,100.00
2023-04-27T05:24:30.745Z,100.00
2023-04-27T05:27:33.756Z,100.00
2023-04-27T05:30:38.751Z,100.00
2023-04-27T05:33:41.927Z,100.00
2023-04-27T05:36:47.828Z,100.00
2023-04-27T05:40:47.985Z,100.00
2023-04-27T05:43:51.292Z,100.00
2023-04-27T05:46:56.350Z,100.00
2023-04-27T05:50:01.394Z,100.00
2023-04-27T05:53:05.609Z,100.00
2023-04-27T05:56:09.353Z,100.00
2023-04-27T05:59:12.754Z,100.00
2023-04-27T06:02:18.096Z,100.00
2023-04-27T06:05:21.743Z,100.00
2023-04-27T06:08:25.126Z,100.00
2023-04-27T06:11:28.579Z,100.00
2023-04-27T06:14:31.644Z,100.00
2023-04-27T06:17:36.464Z,100.00
2023-04-27T06:20:39.802Z,100.00
2023-04-27T06:23:42.884Z,100.00
2023-04-27T06:26:45.887Z,100.00
2023-04-27T06:29:48.897Z,100.00
2023-04-27T06:32:55.317Z,100.00
2023-04-27T06:35:58.504Z,100.00
2023-04-27T06:39:01.707Z,100.00
2023-04-27T06:42:05.073Z,100.00
2023-04-27T06:45:09.624Z,100.00
2023-04-27T06:48:14.119Z,100.00
2023-04-27T06:51:17.179Z,100.00
2023-04-27T06:54:20.375Z,100.00
2023-04-27T06:57:23.347Z,100.00
2023-04-27T07:00:27.691Z,100.00
2023-04-27T07:03:32.476Z,100.00
2023-04-27T07:06:36.260Z,100.00
2023-04-27T07:09:39.547Z,100.00
2023-04-27T07:12:43.698Z,100.00
2023-04-27T07:15:46.926Z,100.00
2023-04-27T07:18:51.307Z,100.00
2023-04-27T07:21:54.353Z,100.00
2023-04-27T07:24:57.379Z,100.00
2023-04-27T07:28:00.857Z,100.00
2023-04-27T07:31:05.959Z,100.00
2023-04-27T07:34:11.373Z,100.00
2023-04-27T07:37:15.914Z,100.00
2023-04-27T07:40:19.097Z,100.00
2023-04-27T07:43:23.068Z,100.00
2023-04-27T07:46:32.274Z,100.00
2023-04-27T07:49:37.397Z,100.00
2023-04-27T07:52:40.494Z,100.00
2023-04-27T07:55:44.616Z,100.00
2023-04-27T07:58:47.688Z,100.00
2023-04-27T08:01:50.750Z,100.00
2023-04-27T08:04:55.570Z,100.00
2023-04-27T08:07:59.501Z,100.00
2023-04-27T08:11:02.970Z,97.19
2023-04-27T08:14:07.420Z,97.26
2023-04-27T08:17:11.382Z,100.00
2023-04-27T08:20:16.024Z,99.06
2023-04-27T08:23:19.020Z,97.69
2023-04-27T08:26:23.461Z,96.95
2023-04-27T08:29:29.076Z,96.74
2023-04-27T08:32:32.460Z,100.00
2023-04-27T08:35:36.835Z,99.13
2023-04-27T08:38:40.406Z,95.87
2023-04-27T08:41:44.522Z,97.69
2023-04-27T08:44:47.927Z,99.36
2023-04-27T08:47:51.352Z,96.54
2023-04-27T08:50:58.221Z,95.51
2023-04-27T08:54:02.027Z,98.99
2023-04-27T08:57:11.297Z,92.91
2023-04-27T09:00:18.025Z,92.48
2023-04-27T09:03:24.450Z,85.92
2023-04-27T09:06:33.509Z,88.28
2023-04-27T09:09:36.635Z,87.82
2023-04-27T09:12:40.318Z,90.95
2023-04-27T09:15:47.755Z,94.02
2023-04-27T09:18:52.416Z,97.01
2023-04-27T09:22:08.036Z,94.55
2023-04-27T09:25:11.120Z,83.75
2023-04-27T09:28:16.524Z,82.32
2023-04-27T09:31:20.146Z,77.50
2023-04-27T09:34:23.257Z,77.23
2023-04-27T09:37:27.997Z,78.40
2023-04-27T09:40:31.864Z,81.74
2023-04-27T09:43:41.431Z,80.28
2023-04-27T09:46:46.235Z,83.14
2023-04-27T09:49:53.970Z,85.20
2023-04-27T09:52:58.633Z,88.46
2023-04-27T09:56:25.981Z,87.11
2023-04-27T09:59:49.501Z,85.54
2023-04-27T10:03:07.492Z,83.17
2023-04-27T10:06:53.149Z,80.02
2023-04-27T10:10:04.058Z,74.65
2023-04-27T10:13:07.523Z,83.17
2023-04-27T10:16:18.623Z,71.98
2023-04-27T10:19:23.479Z,70.12
2023-04-27T10:22:40.035Z,78.48
2023-04-27T10:25:47.611Z,76.16
2023-04-27T10:28:59.427Z,70.36
2023-04-27T10:32:08.583Z,67.78
2023-04-27T10:35:11.674Z,64.93
2023-04-27T10:38:18.853Z,63.96
2023-04-27T10:41:23.517Z,63.89
2023-04-27T10:44:29.348Z,62.59
2023-04-27T10:47:41.054Z,59.07
2023-04-27T10:50:46.711Z,63.20
2023-04-27T10:53:54.074Z,62.28
2023-04-27T10:57:07.583Z,59.23
2023-04-27T11:00:16.220Z,68.87
2023-04-27T11:03:23.189Z,61.73
2023-04-27T11:06:28.322Z,56.09
2023-04-27T11:09:32.076Z,52.68
2023-04-27T11:12:37.753Z,53.08
2023-04-27T11:15:49.895Z,50.99
2023-04-27T11:18:53.167Z,55.18
2023-04-27T11:22:04.713Z,53.86
2023-04-27T11:25:08.485Z,56.16
2023-04-27T11:28:19.975Z,53.28
2023-04-27T11:31:23.401Z,54.58
2023-04-27T11:34:26.708Z,56.06
2023-04-27T11:37:30.123Z,58.50
2023-04-27T11:40:35.901Z,59.67
2023-04-27T11:43:43.374Z,54.62
2023-04-27T11:46:49.617Z,57.75
2023-04-27T11:49:53.740Z,56.90
2023-04-27T11:53:02.051Z,56.02
2023-04-27T11:56:07.870Z,55.47
2023-04-27T11:59:22.998Z,57.80
2023-04-27T12:02:26.206Z,56.09
2023-04-27T12:05:31.918Z,62.37
2023-04-27T12:08:35.137Z,62.24
2023-04-27T12:11:38.329Z,59.28
2023-04-27T12:14:42.748Z,59.40
2023-04-27T12:17:46.068Z,60.30
2023-04-27T12:20:49.198Z,58.77
2023-04-27T12:23:52.754Z,57.76
2023-04-27T12:26:55.892Z,54.71
2023-04-27T12:30:00.546Z,61.91
2023-04-27T12:33:09.626Z,56.19
2023-04-27T12:36:12.724Z,57.31
2023-04-27T12:39:18.412Z,60.71
2023-04-27T12:42:24.076Z,61.83
2023-04-27T12:45:28.823Z,60.85
2023-04-27T12:48:31.918Z,61.41
2023-04-27T12:51:38.738Z,58.44
2023-04-27T12:54:41.746Z,61.65
2023-04-27T12:57:45.166Z,60.45
2023-04-27T13:00:49.644Z,59.11
2023-04-27T13:03:53.818Z,59.09
2023-04-27T13:06:59.761Z,58.03
2023-04-27T13:10:03.102Z,55.38
2023-04-27T13:13:07.030Z,57.87
2023-04-27T13:16:14.266Z,56.57
2023-04-27T13:19:17.281Z,61.38
2023-04-27T13:22:20.918Z,60.49
2023-04-27T13:25:27.226Z,58.73
2023-04-27T13:28:30.271Z,55.61
2023-04-27T13:31:35.027Z,55.60
2023-04-27T13:34:38.344Z,55.36
2023-04-27T13:37:42.536Z,52.47
2023-04-27T13:40:45.761Z,55.17
2023-04-27T13:43:51.919Z,52.34
2023-04-27T13:46:56.759Z,49.74
2023-04-27T13:49:59.902Z,48.68
2023-04-27T13:53:03.561Z,49.09
2023-04-27T13:56:07.317Z,52.83
2023-04-27T13:59:10.634Z,43.56
2023-04-27T14:02:15.150Z,42.60
2023-04-27T14:05:18.265Z,42.86
2023-04-27T14:08:22.506Z,43.96
2023-04-27T14:11:26.239Z,44.21
2023-04-27T14:14:29.704Z,44.07
2023-04-27T14:17:34.108Z,44.68
2023-04-27T14:20:37.992Z,54.37
2023-04-27T14:23:41.149Z,47.31
2023-04-27T14:26:45.593Z,50.32
2023-04-27T14:29:48.625Z,48.29
2023-04-27T14:32:53.452Z,49.21
2023-04-27T14:35:57.035Z,48.76
2023-04-27T14:39:00.351Z,50.86
2023-04-27T14:42:04.074Z,50.06
2023-04-27T14:45:08.868Z,49.76
2023-04-27T14:48:13.687Z,51.69
2023-04-27T14:51:17.507Z,53.29
2023-04-27T14:54:20.572Z,53.16
2023-04-27T14:57:23.580Z,52.56
2023-04-27T15:00:26.755Z,53.23
2023-04-27T15:03:32.622Z,56.11
2023-04-27T15:06:36.122Z,53.78
2023-04-27T15:09:39.134Z,52.96
2023-04-27T15:12:42.466Z,51.85
2023-04-27T15:15:46.802Z,55.47
2023-04-27T15:18:51.651Z,56.44
2023-04-27T15:21:54.691Z,53.26
2023-04-27T15:24:57.794Z,53.38
2023-04-27T15:28:03.635Z,54.36
2023-04-27T15:31:07.145Z,53.04
2023-04-27T15:34:11.459Z,53.85
2023-04-27T15:37:14.497Z,56.38
2023-04-27T15:40:18.235Z,55.01
2023-04-27T15:43:21.701Z,57.61
2023-04-27T15:46:25.158Z,53.50
2023-04-27T15:49:30.036Z,55.89
2023-04-27T15:52:35.721Z,56.03
2023-04-27T15:55:39.358Z,58.12
2023-04-27T15:58:54.075Z,52.52
2023-04-27T16:02:00.652Z,57.81
2023-04-27T16:05:09.708Z,56.23
2023-04-27T16:08:13.023Z,54.76
2023-04-27T16:11:16.104Z,55.52
2023-04-27T16:14:21.248Z,58.57
2023-04-27T16:17:24.386Z,58.06
2023-04-27T16:20:33.113Z,58.05
2023-04-27T16:23:38.420Z,55.46
2023-04-27T16:26:41.450Z,57.07
2023-04-27T16:29:46.098Z,58.74
2023-04-27T16:32:55.999Z,56.00
2023-04-27T16:36:05.031Z,54.83
2023-04-27T16:39:12.245Z,55.71
2023-04-27T16:42:20.334Z,54.55
2023-04-27T16:45:29.863Z,54.68
2023-04-27T16:48:38.966Z,51.24
2023-04-27T16:51:43.829Z,54.01
2023-04-27T16:54:47.836Z,53.47
2023-04-27T16:57:55.693Z,54.01
2023-04-27T17:00:58.836Z,50.18
2023-04-27T17:04:02.330Z,51.65
2023-04-27T17:07:12.891Z,51.76
2023-04-27T17:10:16.940Z,51.18
2023-04-27T17:13:20.783Z,50.69
2023-04-27T17:16:24.516Z,52.06
2023-04-27T17:19:28.668Z,52.26
2023-04-27T17:22:33.296Z,50.49
2023-04-27T17:25:36.433Z,49.65
2023-04-27T17:28:39.522Z,50.33
2023-04-27T17:31:50.583Z,52.74
2023-04-27T17:34:55.755Z,50.79
2023-04-27T17:38:06.048Z,51.62
2023-04-27T17:41:10.280Z,50.65
2023-04-27T17:44:43.259Z,51.69
2023-04-27T17:47:54.089Z,55.50
2023-04-27T17:51:22.559Z,56.39
2023-04-27T17:54:48.665Z,58.06
2023-04-27T17:57:57.427Z,54.23
2023-04-27T18:01:27.081Z,54.53
2023-04-27T18:04:40.016Z,59.06
2023-04-27T18:12:09.919Z,61.22
2023-04-27T18:16:22.121Z,61.77
2023-04-27T18:20:06.904Z,59.83
2023-04-27T18:23:41.547Z,62.31
2023-04-27T18:27:44.404Z,63.47
2023-04-27T18:31:01.195Z,67.71
2023-04-27T18:34:05.348Z,67.73
2023-04-27T18:37:11.981Z,73.40
2023-04-27T18:40:18.564Z,81.38
2023-04-27T18:44:13.112Z,87.28
2023-04-27T18:48:02.291Z,88.24
2023-04-27T18:55:24.951Z,95.95
2023-04-27T18:59:34.216Z,96.82
2023-04-27T19:26:13.013Z,100.00
2023-04-27T19:34:48.497Z,100.00
2023-04-27T19:38:29.004Z,100.00
2023-04-27T19:42:04.999Z,100.00
2023-04-27T19:45:25.060Z,100.00
2023-04-27T19:48:46.242Z,100.00
2023-04-27T19:52:35.636Z,100.00
2023-04-27T20:00:53.302Z,100.00
2023-04-27T20:03:57.553Z,100.00
2023-04-27T20:07:27.091Z,100.00
2023-04-27T20:11:30.566Z,100.00
2023-04-27T20:15:05.163Z,100.00
2023-04-27T20:22:38.246Z,100.00
2023-04-27T20:25:41.974Z,100.00
2023-04-27T20:29:19.848Z,100.00
2023-04-27T20:33:36.079Z,100.00
2023-04-27T20:37:31.345Z,100.00
2023-04-27T20:41:11.697Z,100.00
2023-04-27T20:44:20.689Z,100.00
2023-04-27T20:47:23.780Z,100.00
2023-04-27T20:50:27.095Z,100.00
2023-04-27T20:53:30.399Z,100.00
2023-04-27T20:56:35.609Z,100.00
2023-04-27T20:59:38.723Z,100.00
2023-04-27T21:02:42.507Z,100.00
2023-04-27T21:05:51.768Z,100.00
2023-04-27T21:08:55.325Z,100.00
2023-04-27T21:12:00.111Z,100.00
2023-04-27T21:15:03.330Z,100.00
2023-04-27T21:18:13.494Z,100.00
2023-04-27T21:21:21.480Z,100.00
2023-04-27T21:24:25.327Z,100.00
2023-04-27T21:27:31.365Z,100.00
2023-04-27T21:30:34.787Z,100.00
2023-04-27T21:33:38.161Z,100.00
2023-04-27T21:36:41.201Z,100.00
2023-04-27T21:39:44.238Z,100.00
2023-04-27T21:42:50.983Z,100.00
2023-04-27T21:45:54.320Z,100.00
2023-04-27T21:48:57.338Z,100.00
2023-04-27T21:52:00.502Z,100.00
2023-04-27T21:55:04.979Z,100.00
2023-04-27T21:58:10.004Z,100.00
2023-04-27T22:01:14.322Z,100.00
2023-04-27T22:04:17.574Z,100.00
2023-04-27T22:07:20.942Z,100.00
2023-04-27T22:10:23.960Z,100.00
2023-04-27T22:13:28.543Z,100.00
2023-04-27T22:16:31.650Z,100.00
2023-04-27T22:19:34.701Z,100.00
2023-04-27T22:22:37.926Z,100.00
2023-04-27T22:25:43.159Z,100.00
2023-04-27T22:28:47.598Z,100.00
2023-04-27T22:31:52.080Z,100.00
2023-04-27T22:34:55.298Z,100.00
2023-04-27T22:37:59.456Z,100.00
2023-04-27T22:41:02.848Z,100.00
2023-04-27T22:44:07.613Z,100.00
2023-04-27T22:47:10.859Z,100.00
2023-04-27T22:50:14.583Z,100.00
2023-04-27T22:53:17.807Z,100.00
2023-04-27T22:56:22.558Z,100.00
2023-04-27T22:59:27.322Z,100.00
2023-04-27T23:02:30.454Z,100.00
2023-04-27T23:05:33.838Z,100.00
2023-04-27T23:08:37.295Z,100.00
2023-04-27T23:12:08.090Z,100.00
2023-04-27T23:15:13.427Z,100.00
2023-04-27T23:18:16.854Z,100.00
2023-04-27T23:21:20.001Z,100.00
2023-04-27T23:24:23.300Z,100.00
2023-04-27T23:27:26.676Z,100.00
2023-04-27T23:30:32.514Z,100.00
2023-04-27T23:33:35.896Z,100.00
2023-04-27T23:36:41.742Z,100.00
2023-04-27T23:39:50.760Z,100.00
2023-04-27T23:42:53.812Z,100.00
2023-04-27T23:45:58.340Z,100.00
2023-04-27T23:49:01.637Z,100.00
2023-04-27T23:52:05.068Z,100.00
2023-04-27T23:55:10.309Z,100.00
2023-04-27T23:58:13.349Z,100.00
